sensor_id;sensor_type;location;lat;lon;timestamp;pressure;altitude;pressure_sealevel;temperature;humidity
21547;BME280;41275;51.912;4.388;2024-03-08T00:01:38;101803.91;;;10.32;48.74
21547;BME280;41275;51.912;4.388;2024-03-08T00:06:59;101799.84;;;10.30;48.49
21547;BME280;41275;51.912;4.388;2024-03-08T00:12:20;101798.63;;;10.26;48.54
21547;BME280;41275;51.912;4.388;2024-03-08T00:17:42;101795.31;;;10.24;48.38
21547;BME280;41275;51.912;4.388;2024-03-08T00:23:04;101779.03;;;10.20;48.33
21547;BME280;41275;51.912;4.388;2024-03-08T00:28:25;101782.06;;;10.17;48.75
21547;BME280;41275;51.912;4.388;2024-03-08T00:33:48;101775.38;;;10.15;48.42
21547;BME280;41275;51.912;4.388;2024-03-08T00:39:09;101770.25;;;10.13;48.43
21547;BME280;41275;51.912;4.388;2024-03-08T00:44:30;101759.25;;;10.09;48.50
21547;BME280;41275;51.912;4.388;2024-03-08T00:49:52;101767.41;;;10.08;48.58
21547;BME280;41275;51.912;4.388;2024-03-08T00:55:14;101764.13;;;10.06;48.45
21547;BME280;41275;51.912;4.388;2024-03-08T01:00:35;101755.59;;;10.04;48.00
21547;BME280;41275;51.912;4.388;2024-03-08T01:05:56;101752.53;;;10.00;47.66
21547;BME280;41275;51.912;4.388;2024-03-08T01:11:18;101749.06;;;10.00;48.14
21547;BME280;41275;51.912;4.388;2024-03-08T01:16:39;101744.19;;;9.97;47.96
21547;BME280;41275;51.912;4.388;2024-03-08T01:22:01;101727.09;;;9.93;48.22
21547;BME280;41275;51.912;4.388;2024-03-08T01:27:22;101718.56;;;9.91;47.94
21547;BME280;41275;51.912;4.388;2024-03-08T01:32:43;101716.47;;;9.86;48.19
21547;BME280;41275;51.912;4.388;2024-03-08T01:38:05;101717.72;;;9.83;47.92
21547;BME280;41275;51.912;4.388;2024-03-08T01:43:27;101710.81;;;9.82;47.80
21547;BME280;41275;51.912;4.388;2024-03-08T01:48:52;101703.44;;;9.78;47.68
21547;BME280;41275;51.912;4.388;2024-03-08T01:54:15;101698.38;;;9.76;47.91
21547;BME280;41275;51.912;4.388;2024-03-08T01:59:37;101704.69;;;9.75;47.88
21547;BME280;41275;51.912;4.388;2024-03-08T02:05:00;101688.19;;;9.73;47.43
21547;BME280;41275;51.912;4.388;2024-03-08T02:10:21;101687.38;;;9.73;47.44
21547;BME280;41275;51.912;4.388;2024-03-08T02:21:14;101671.09;;;9.69;47.01
21547;BME280;41275;51.912;4.388;2024-03-08T02:26:39;101650.34;;;9.66;47.55
21547;BME280;41275;51.912;4.388;2024-03-08T02:32:00;101646.91;;;9.59;46.91
21547;BME280;41275;51.912;4.388;2024-03-08T02:37:21;101649.31;;;9.54;47.28
21547;BME280;41275;51.912;4.388;2024-03-08T02:42:42;101637.50;;;9.50;47.00
21547;BME280;41275;51.912;4.388;2024-03-08T02:48:04;101628.97;;;9.48;47.23
21547;BME280;41275;51.912;4.388;2024-03-08T02:53:27;101621.22;;;9.46;47.17
21547;BME280;41275;51.912;4.388;2024-03-08T02:58:48;101613.09;;;9.41;47.29
21547;BME280;41275;51.912;4.388;2024-03-08T03:04:09;101613.69;;;9.37;47.31
21547;BME280;41275;51.912;4.388;2024-03-08T03:09:31;101603.31;;;9.35;46.33
21547;BME280;41275;51.912;4.388;2024-03-08T03:14:54;101593.97;;;9.32;46.81
21547;BME280;41275;51.912;4.388;2024-03-08T03:20:15;101591.72;;;9.29;46.71
21547;BME280;41275;51.912;4.388;2024-03-08T03:25:43;101587.84;;;9.25;46.86
21547;BME280;41275;51.912;4.388;2024-03-08T03:31:07;101584.59;;;9.23;46.43
21547;BME280;41275;51.912;4.388;2024-03-08T03:36:31;101573.81;;;9.18;46.25
21547;BME280;41275;51.912;4.388;2024-03-08T03:41:52;101574.19;;;9.15;46.45
21547;BME280;41275;51.912;4.388;2024-03-08T03:47:14;101572.38;;;9.09;46.50
21547;BME280;41275;51.912;4.388;2024-03-08T03:52:36;101574.59;;;9.05;46.94
21547;BME280;41275;51.912;4.388;2024-03-08T03:57:57;101569.53;;;9.04;46.67
21547;BME280;41275;51.912;4.388;2024-03-08T04:03:19;101559.53;;;8.99;46.73
21547;BME280;41275;51.912;4.388;2024-03-08T04:08:41;101552.19;;;8.95;46.24
21547;BME280;41275;51.912;4.388;2024-03-08T04:14:02;101541.44;;;8.90;46.43
21547;BME280;41275;51.912;4.388;2024-03-08T04:19:23;101539.81;;;8.89;46.42
21547;BME280;41275;51.912;4.388;2024-03-08T04:24:45;101541.41;;;8.83;46.65
21547;BME280;41275;51.912;4.388;2024-03-08T04:30:07;101536.50;;;8.80;46.48
21547;BME280;41275;51.912;4.388;2024-03-08T04:35:29;101539.75;;;8.75;46.37
21547;BME280;41275;51.912;4.388;2024-03-08T04:40:51;101541.78;;;8.73;46.40
21547;BME280;41275;51.912;4.388;2024-03-08T04:46:12;101531.81;;;8.69;46.48
21547;BME280;41275;51.912;4.388;2024-03-08T04:51:33;101514.91;;;8.63;46.48
21547;BME280;41275;51.912;4.388;2024-03-08T04:56:55;101517.78;;;8.62;46.53
21547;BME280;41275;51.912;4.388;2024-03-08T05:02:16;101518.16;;;8.58;46.44
21547;BME280;41275;51.912;4.388;2024-03-08T05:07:39;101512.25;;;8.56;46.48
21547;BME280;41275;51.912;4.388;2024-03-08T05:13:16;101513.25;;;8.55;46.82
21547;BME280;41275;51.912;4.388;2024-03-08T05:18:37;101502.91;;;8.54;46.86
21547;BME280;41275;51.912;4.388;2024-03-08T05:23:59;101498.03;;;8.51;46.90
21547;BME280;41275;51.912;4.388;2024-03-08T05:29:20;101504.31;;;8.50;46.09
21547;BME280;41275;51.912;4.388;2024-03-08T05:34:41;101495.97;;;8.46;46.62
21547;BME280;41275;51.912;4.388;2024-03-08T05:40:03;101488.25;;;8.45;46.62
21547;BME280;41275;51.912;4.388;2024-03-08T05:45:29;101495.56;;;8.43;46.54
21547;BME280;41275;51.912;4.388;2024-03-08T05:50:51;101487.00;;;8.41;46.44
21547;BME280;41275;51.912;4.388;2024-03-08T05:56:12;101480.31;;;8.38;46.84
21547;BME280;41275;51.912;4.388;2024-03-08T06:01:33;101475.19;;;8.36;46.13
21547;BME280;41275;51.912;4.388;2024-03-08T06:06:57;101473.56;;;8.35;46.52
21547;BME280;41275;51.912;4.388;2024-03-08T06:12:19;101467.88;;;8.32;46.50
21547;BME280;41275;51.912;4.388;2024-03-08T06:17:40;101477.22;;;8.34;46.62
21547;BME280;41275;51.912;4.388;2024-03-08T06:23:02;101460.38;;;8.35;46.06
21547;BME280;41275;51.912;4.388;2024-03-08T06:28:23;101455.09;;;8.35;45.92
21547;BME280;41275;51.912;4.388;2024-03-08T06:33:44;101453.50;;;8.34;46.65
21547;BME280;41275;51.912;4.388;2024-03-08T06:39:06;101448.00;;;8.36;46.09
21547;BME280;41275;51.912;4.388;2024-03-08T06:44:30;101443.00;;;8.41;46.03
21547;BME280;41275;51.912;4.388;2024-03-08T06:49:51;101436.50;;;8.44;46.28
21547;BME280;41275;51.912;4.388;2024-03-08T06:55:13;101438.38;;;8.50;46.07
21547;BME280;41275;51.912;4.388;2024-03-08T07:00:34;101433.53;;;8.53;46.08
21547;BME280;41275;51.912;4.388;2024-03-08T07:05:56;101433.53;;;8.60;46.55
21547;BME280;41275;51.912;4.388;2024-03-08T07:11:19;101433.34;;;8.68;46.24
21547;BME280;41275;51.912;4.388;2024-03-08T07:16:40;101427.91;;;8.76;45.72
21547;BME280;41275;51.912;4.388;2024-03-08T07:22:02;101423.25;;;8.85;45.56
21547;BME280;41275;51.912;4.388;2024-03-08T07:27:24;101422.84;;;8.95;45.16
21547;BME280;41275;51.912;4.388;2024-03-08T07:32:45;101424.31;;;9.04;45.43
21547;BME280;41275;51.912;4.388;2024-03-08T07:38:08;101418.22;;;9.17;45.07
21547;BME280;41275;51.912;4.388;2024-03-08T07:43:30;101414.97;;;9.21;44.78
21547;BME280;41275;51.912;4.388;2024-03-08T07:48:52;101417.59;;;9.41;44.81
21547;BME280;41275;51.912;4.388;2024-03-08T07:54:14;101411.91;;;9.51;44.78
21547;BME280;41275;51.912;4.388;2024-03-08T07:59:35;101406.63;;;9.64;44.68
21547;BME280;41275;51.912;4.388;2024-03-08T08:04:56;101402.31;;;9.76;44.46
21547;BME280;41275;51.912;4.388;2024-03-08T08:10:20;101398.81;;;9.89;44.04
21547;BME280;41275;51.912;4.388;2024-03-08T08:15:45;101383.34;;;9.99;43.80
21547;BME280;41275;51.912;4.388;2024-03-08T08:21:06;101383.28;;;10.13;44.16
21547;BME280;41275;51.912;4.388;2024-03-08T08:26:28;101363.53;;;10.22;43.56
21547;BME280;41275;51.912;4.388;2024-03-08T08:31:49;101364.53;;;10.34;43.37
21547;BME280;41275;51.912;4.388;2024-03-08T08:37:10;101354.47;;;10.49;43.23
21547;BME280;41275;51.912;4.388;2024-03-08T08:42:32;101344.59;;;10.63;42.94
21547;BME280;41275;51.912;4.388;2024-03-08T08:47:53;101338.84;;;10.73;42.74
21547;BME280;41275;51.912;4.388;2024-03-08T08:53:15;101345.47;;;10.89;42.51
21547;BME280;41275;51.912;4.388;2024-03-08T08:58:37;101334.31;;;11.05;42.49
21547;BME280;41275;51.912;4.388;2024-03-08T09:03:58;101335.34;;;11.29;42.24
21547;BME280;41275;51.912;4.388;2024-03-08T09:09:19;101325.31;;;11.31;42.21
21547;BME280;41275;51.912;4.388;2024-03-08T09:14:41;101322.56;;;11.44;42.17
21547;BME280;41275;51.912;4.388;2024-03-08T09:20:02;101329.31;;;11.59;41.85
21547;BME280;41275;51.912;4.388;2024-03-08T09:25:25;101309.28;;;11.81;41.46
21547;BME280;41275;51.912;4.388;2024-03-08T09:30:47;101302.16;;;12.00;41.17
21547;BME280;41275;51.912;4.388;2024-03-08T09:36:08;101284.72;;;12.22;41.19
21547;BME280;41275;51.912;4.388;2024-03-08T09:41:29;101273.00;;;12.42;40.91
21547;BME280;41275;51.912;4.388;2024-03-08T09:46:51;101257.41;;;12.45;40.97
21547;BME280;41275;51.912;4.388;2024-03-08T09:52:14;101245.78;;;12.58;40.51
21547;BME280;41275;51.912;4.388;2024-03-08T09:57:37;101233.34;;;12.82;40.05
21547;BME280;41275;51.912;4.388;2024-03-08T10:03:02;101216.78;;;13.03;40.27
21547;BME280;41275;51.912;4.388;2024-03-08T10:08:24;101206.06;;;13.10;39.60
21547;BME280;41275;51.912;4.388;2024-03-08T10:13:47;101201.09;;;13.25;39.50
21547;BME280;41275;51.912;4.388;2024-03-08T10:19:09;101193.78;;;13.44;39.59
21547;BME280;41275;51.912;4.388;2024-03-08T10:24:33;101177.47;;;13.41;39.44
21547;BME280;41275;51.912;4.388;2024-03-08T10:29:54;101165.63;;;13.60;39.28
21547;BME280;41275;51.912;4.388;2024-03-08T10:35:16;101154.94;;;13.72;39.18
21547;BME280;41275;51.912;4.388;2024-03-08T10:40:38;101148.09;;;13.93;38.68
21547;BME280;41275;51.912;4.388;2024-03-08T10:46:30;101139.38;;;14.14;38.28
21547;BME280;41275;51.912;4.388;2024-03-08T10:51:54;101128.03;;;14.19;38.28
21547;BME280;41275;51.912;4.388;2024-03-08T10:57:18;101110.34;;;14.30;37.56
21547;BME280;41275;51.912;4.388;2024-03-08T11:02:44;101100.50;;;14.30;37.40
21547;BME280;41275;51.912;4.388;2024-03-08T11:08:17;101099.22;;;14.49;37.16
21547;BME280;41275;51.912;4.388;2024-03-08T11:13:42;101085.28;;;14.64;36.94
21547;BME280;41275;51.912;4.388;2024-03-08T11:24:38;101063.31;;;14.74;36.89
21547;BME280;41275;51.912;4.388;2024-03-08T11:30:05;101061.28;;;15.08;36.46
21547;BME280;41275;51.912;4.388;2024-03-08T11:35:36;101059.81;;;15.17;36.78
21547;BME280;41275;51.912;4.388;2024-03-08T11:40:58;101055.22;;;15.40;36.31
21547;BME280;41275;51.912;4.388;2024-03-08T11:46:19;101054.22;;;15.46;35.57
21547;BME280;41275;51.912;4.388;2024-03-08T11:51:41;101052.63;;;15.45;35.36
21547;BME280;41275;51.912;4.388;2024-03-08T11:57:03;101032.38;;;15.49;35.76
21547;BME280;41275;51.912;4.388;2024-03-08T12:02:25;101017.00;;;15.61;35.55
21547;BME280;41275;51.912;4.388;2024-03-08T12:07:56;101020.84;;;15.76;35.15
21547;BME280;41275;51.912;4.388;2024-03-08T12:13:17;101006.81;;;15.85;35.04
21547;BME280;41275;51.912;4.388;2024-03-08T12:18:39;100996.03;;;16.17;34.91
21547;BME280;41275;51.912;4.388;2024-03-08T12:24:08;100988.38;;;16.31;34.76
21547;BME280;41275;51.912;4.388;2024-03-08T12:29:29;100974.34;;;16.66;34.50
21547;BME280;41275;51.912;4.388;2024-03-08T12:34:54;100970.44;;;17.86;33.97
21547;BME280;41275;51.912;4.388;2024-03-08T12:40:15;100971.41;;;18.81;32.70
21547;BME280;41275;51.912;4.388;2024-03-08T12:45:38;100966.47;;;19.67;30.85
21547;BME280;41275;51.912;4.388;2024-03-08T12:51:00;100960.03;;;19.92;29.85
21547;BME280;41275;51.912;4.388;2024-03-08T12:56:31;100945.34;;;19.84;29.15
21547;BME280;41275;51.912;4.388;2024-03-08T13:01:54;100927.69;;;20.45;28.54
21547;BME280;41275;51.912;4.388;2024-03-08T13:07:16;100927.09;;;21.04;27.82
21547;BME280;41275;51.912;4.388;2024-03-08T13:12:37;100916.00;;;20.92;27.62
21547;BME280;41275;51.912;4.388;2024-03-08T13:17:59;100917.47;;;21.17;27.65
21547;BME280;41275;51.912;4.388;2024-03-08T13:23:21;100898.81;;;21.53;27.13
21547;BME280;41275;51.912;4.388;2024-03-08T13:28:43;100889.84;;;21.99;26.94
21547;BME280;41275;51.912;4.388;2024-03-08T13:34:04;100900.13;;;22.25;26.89
21547;BME280;41275;51.912;4.388;2024-03-08T13:39:26;100886.59;;;22.52;26.44
21547;BME280;41275;51.912;4.388;2024-03-08T13:44:48;100868.47;;;22.30;26.48
21547;BME280;41275;51.912;4.388;2024-03-08T13:50:11;100861.91;;;22.90;26.03
21547;BME280;41275;51.912;4.388;2024-03-08T13:55:33;100850.72;;;22.97;25.90
21547;BME280;41275;51.912;4.388;2024-03-08T14:00:54;100837.38;;;22.92;25.64
21547;BME280;41275;51.912;4.388;2024-03-08T14:06:16;100833.56;;;22.93;25.69
21547;BME280;41275;51.912;4.388;2024-03-08T14:11:37;100824.28;;;23.47;24.98
21547;BME280;41275;51.912;4.388;2024-03-08T14:16:59;100808.97;;;23.34;24.81
21547;BME280;41275;51.912;4.388;2024-03-08T14:22:20;100799.31;;;23.42;24.69
21547;BME280;41275;51.912;4.388;2024-03-08T14:27:45;100791.31;;;23.19;24.71
21547;BME280;41275;51.912;4.388;2024-03-08T14:33:07;100774.38;;;23.36;24.89
21547;BME280;41275;51.912;4.388;2024-03-08T14:38:31;100777.41;;;23.52;24.67
21547;BME280;41275;51.912;4.388;2024-03-08T14:43:52;100772.81;;;23.52;24.65
21547;BME280;41275;51.912;4.388;2024-03-08T14:49:14;100763.50;;;23.76;24.09
21547;BME280;41275;51.912;4.388;2024-03-08T14:54:35;100743.72;;;23.49;24.36
21547;BME280;41275;51.912;4.388;2024-03-08T14:59:56;100752.25;;;23.34;24.49
21547;BME280;41275;51.912;4.388;2024-03-08T15:05:18;100738.16;;;23.46;24.17
21547;BME280;41275;51.912;4.388;2024-03-08T15:10:42;100729.00;;;21.08;25.68
21547;BME280;41275;51.912;4.388;2024-03-08T15:16:24;100714.59;;;19.50;27.10
21547;BME280;41275;51.912;4.388;2024-03-08T15:21:46;100717.88;;;18.70;28.27
21547;BME280;41275;51.912;4.388;2024-03-08T15:27:09;100717.31;;;18.09;28.96
21547;BME280;41275;51.912;4.388;2024-03-08T15:32:30;100702.53;;;17.78;29.42
21547;BME280;41275;51.912;4.388;2024-03-08T15:37:53;100696.72;;;17.55;30.19
21547;BME280;41275;51.912;4.388;2024-03-08T15:43:18;100701.13;;;17.31;30.25
21547;BME280;41275;51.912;4.388;2024-03-08T15:48:40;100692.06;;;17.16;30.77
21547;BME280;41275;51.912;4.388;2024-03-08T15:54:02;100702.84;;;16.96;30.75
21547;BME280;41275;51.912;4.388;2024-03-08T15:59:25;100691.09;;;16.82;31.43
21547;BME280;41275;51.912;4.388;2024-03-08T16:04:48;100683.63;;;16.74;31.52
21547;BME280;41275;51.912;4.388;2024-03-08T16:10:09;100674.28;;;16.81;31.42
21547;BME280;41275;51.912;4.388;2024-03-08T16:15:30;100681.22;;;17.57;31.08
21547;BME280;41275;51.912;4.388;2024-03-08T16:20:53;100682.13;;;17.37;31.47
21547;BME280;41275;51.912;4.388;2024-03-08T16:26:14;100670.63;;;17.32;31.50
21547;BME280;41275;51.912;4.388;2024-03-08T16:31:36;100664.09;;;16.88;32.05
21547;BME280;41275;51.912;4.388;2024-03-08T16:37:00;100662.81;;;16.60;32.96
21547;BME280;41275;51.912;4.388;2024-03-08T16:42:23;100655.34;;;16.37;32.83
21547;BME280;41275;51.912;4.388;2024-03-08T16:47:44;100647.38;;;16.16;33.17
21547;BME280;41275;51.912;4.388;2024-03-08T16:53:06;100655.13;;;16.08;33.80
21547;BME280;41275;51.912;4.388;2024-03-08T16:58:27;100656.16;;;15.91;33.79
21547;BME280;41275;51.912;4.388;2024-03-08T17:03:48;100648.94;;;15.82;34.00
21547;BME280;41275;51.912;4.388;2024-03-08T17:09:10;100654.53;;;15.70;34.34
21547;BME280;41275;51.912;4.388;2024-03-08T17:14:34;100655.25;;;15.55;34.68
21547;BME280;41275;51.912;4.388;2024-03-08T17:19:58;100650.97;;;15.44;34.53
21547;BME280;41275;51.912;4.388;2024-03-08T17:25:20;100656.53;;;15.27;34.84
21547;BME280;41275;51.912;4.388;2024-03-08T17:30:42;100645.84;;;15.17;35.28
21547;BME280;41275;51.912;4.388;2024-03-08T17:36:10;100656.66;;;15.00;35.44
21547;BME280;41275;51.912;4.388;2024-03-08T17:41:32;100657.94;;;14.87;35.58
21547;BME280;41275;51.912;4.388;2024-03-08T17:46:53;100653.88;;;14.75;36.37
21547;BME280;41275;51.912;4.388;2024-03-08T17:52:15;100652.50;;;14.67;36.20
21547;BME280;41275;51.912;4.388;2024-03-08T17:57:36;100645.81;;;14.59;36.43
21547;BME280;41275;51.912;4.388;2024-03-08T18:03:01;100656.13;;;14.51;36.15
21547;BME280;41275;51.912;4.388;2024-03-08T18:08:26;100651.50;;;14.41;36.35
21547;BME280;41275;51.912;4.388;2024-03-08T18:13:47;100659.47;;;14.36;36.59
21547;BME280;41275;51.912;4.388;2024-03-08T18:19:09;100657.81;;;14.30;36.62
21547;BME280;41275;51.912;4.388;2024-03-08T18:24:32;100650.84;;;14.23;36.29
21547;BME280;41275;51.912;4.388;2024-03-08T18:29:54;100657.44;;;14.16;36.63
21547;BME280;41275;51.912;4.388;2024-03-08T18:35:17;100640.63;;;14.10;36.72
21547;BME280;41275;51.912;4.388;2024-03-08T18:40:38;100631.00;;;14.04;36.80
21547;BME280;41275;51.912;4.388;2024-03-08T18:46:04;100628.00;;;13.95;36.96
21547;BME280;41275;51.912;4.388;2024-03-08T18:51:26;100635.69;;;13.92;37.04
21547;BME280;41275;51.912;4.388;2024-03-08T18:56:47;100635.31;;;13.83;37.03
21547;BME280;41275;51.912;4.388;2024-03-08T19:02:12;100637.72;;;13.80;37.08
21547;BME280;41275;51.912;4.388;2024-03-08T19:07:34;100636.84;;;13.74;37.69
21547;BME280;41275;51.912;4.388;2024-03-08T19:12:57;100629.59;;;13.64;37.37
21547;BME280;41275;51.912;4.388;2024-03-08T19:18:19;100633.25;;;13.58;37.72
21547;BME280;41275;51.912;4.388;2024-03-08T19:23:40;100629.75;;;13.53;37.88
21547;BME280;41275;51.912;4.388;2024-03-08T19:29:04;100617.44;;;13.46;38.11
21547;BME280;41275;51.912;4.388;2024-03-08T19:34:26;100621.91;;;13.41;38.22
21547;BME280;41275;51.912;4.388;2024-03-08T19:39:48;100621.81;;;13.36;38.31
21547;BME280;41275;51.912;4.388;2024-03-08T19:45:09;100615.66;;;13.30;38.90
21547;BME280;41275;51.912;4.388;2024-03-08T19:50:32;100612.97;;;13.25;38.58
21547;BME280;41275;51.912;4.388;2024-03-08T19:55:53;100602.22;;;13.20;38.80
21547;BME280;41275;51.912;4.388;2024-03-08T20:01:18;100607.75;;;13.13;39.12
21547;BME280;41275;51.912;4.388;2024-03-08T20:06:39;100606.13;;;13.12;39.31
21547;BME280;41275;51.912;4.388;2024-03-08T20:12:06;100593.28;;;13.04;39.36
21547;BME280;41275;51.912;4.388;2024-03-08T20:17:29;100596.72;;;13.05;39.29
21547;BME280;41275;51.912;4.388;2024-03-08T20:22:50;100587.91;;;12.99;39.65
21547;BME280;41275;51.912;4.388;2024-03-08T20:28:12;100584.41;;;12.93;39.60
21547;BME280;41275;51.912;4.388;2024-03-08T20:33:33;100589.41;;;12.90;39.83
21547;BME280;41275;51.912;4.388;2024-03-08T20:38:57;100593.34;;;12.87;39.61
21547;BME280;41275;51.912;4.388;2024-03-08T20:44:18;100580.25;;;12.81;39.82
21547;BME280;41275;51.912;4.388;2024-03-08T20:49:40;100588.22;;;12.81;39.89
21547;BME280;41275;51.912;4.388;2024-03-08T20:55:01;100571.97;;;12.77;40.14
21547;BME280;41275;51.912;4.388;2024-03-08T21:00:24;100568.47;;;12.71;40.32
21547;BME280;41275;51.912;4.388;2024-03-08T21:06:00;100567.91;;;12.69;40.28
21547;BME280;41275;51.912;4.388;2024-03-08T21:11:22;100563.09;;;12.66;40.58
21547;BME280;41275;51.912;4.388;2024-03-08T21:16:44;100560.13;;;12.63;40.60
21547;BME280;41275;51.912;4.388;2024-03-08T21:22:05;100559.81;;;12.59;40.56
21547;BME280;41275;51.912;4.388;2024-03-08T21:27:27;100549.19;;;12.59;40.43
21547;BME280;41275;51.912;4.388;2024-03-08T21:32:52;100553.38;;;12.55;40.58
21547;BME280;41275;51.912;4.388;2024-03-08T21:38:13;100546.47;;;12.54;40.73
21547;BME280;41275;51.912;4.388;2024-03-08T21:43:35;100539.53;;;12.53;40.75
21547;BME280;41275;51.912;4.388;2024-03-08T21:48:57;100539.00;;;12.51;40.85
21547;BME280;41275;51.912;4.388;2024-03-08T21:54:18;100525.97;;;12.49;40.86
21547;BME280;41275;51.912;4.388;2024-03-08T21:59:42;100523.94;;;12.57;40.78
21547;BME280;41275;51.912;4.388;2024-03-08T22:05:03;100517.69;;;12.68;40.91
21547;BME280;41275;51.912;4.388;2024-03-08T22:10:26;100523.63;;;12.75;40.62
21547;BME280;41275;51.912;4.388;2024-03-08T22:15:50;100521.78;;;12.75;40.42
21547;BME280;41275;51.912;4.388;2024-03-08T22:21:12;100504.19;;;12.69;40.70
21547;BME280;41275;51.912;4.388;2024-03-08T22:26:34;100496.94;;;12.65;40.49
21547;BME280;41275;51.912;4.388;2024-03-08T22:31:56;100497.94;;;12.81;40.34
21547;BME280;41275;51.912;4.388;2024-03-08T22:37:17;100490.63;;;12.93;40.50
21547;BME280;41275;51.912;4.388;2024-03-08T22:42:39;100499.75;;;13.02;40.43
21547;BME280;41275;51.912;4.388;2024-03-08T22:48:01;100485.44;;;13.03;40.26
21547;BME280;41275;51.912;4.388;2024-03-08T22:53:22;100482.81;;;13.08;40.04
21547;BME280;41275;51.912;4.388;2024-03-08T22:58:43;100479.91;;;13.10;39.99
21547;BME280;41275;51.912;4.388;2024-03-08T23:04:05;100476.69;;;13.08;40.50
21547;BME280;41275;51.912;4.388;2024-03-08T23:09:29;100475.84;;;13.02;40.14
21547;BME280;41275;51.912;4.388;2024-03-08T23:14:53;100456.16;;;12.98;40.57
21547;BME280;41275;51.912;4.388;2024-03-08T23:20:16;100450.06;;;12.97;40.48
21547;BME280;41275;51.912;4.388;2024-03-08T23:25:38;100440.47;;;12.96;40.62
21547;BME280;41275;51.912;4.388;2024-03-08T23:30:59;100446.31;;;12.93;40.33
21547;BME280;41275;51.912;4.388;2024-03-08T23:36:21;100447.59;;;12.91;40.61
21547;BME280;41275;51.912;4.388;2024-03-08T23:41:42;100448.66;;;12.90;40.70
21547;BME280;41275;51.912;4.388;2024-03-08T23:47:04;100447.28;;;12.87;40.62
21547;BME280;41275;51.912;4.388;2024-03-08T23:52:26;100448.34;;;12.86;40.53
21547;BME280;41275;51.912;4.388;2024-03-08T23:57:57;100441.66;;;12.84;40.92
